Time;durP1;ratioP1;P1;durP2;ratioP2;P2;SDS_P1;SDS_P2;PMS_P1;PMS_P2;Temp;Humidity;BMP_temperature;BMP_pressure;BME280_temperature;BME280_humidity;BME280_pressure;Samples;Min_cycle;Max_cycle;Signal;HPM_P1;HPM_P2
2022/06/20 00:02:23;;;;;;;;;;;;;;;23.11;52.30;100534.47;5048988;28;5438;-60
2022/06/20 00:04:50;;;;;;;;;;;;;;;23.11;52.34;100569.13;5050602;28;4196;-60
2022/06/20 00:07:16;;;;;;;;;;;;;;;23.03;52.20;100586.22;5049238;28;5807;-59
2022/06/20 00:09:42;;;;;;;;;;;;;;;23.06;52.30;100617.34;5050423;28;5389;-60
2022/06/20 00:12:11;;;;;;;;;;;;;;;23.09;52.11;100659.34;5048722;28;4071;-60
2022/06/20 00:14:38;;;;;;;;;;;;;;;23.06;52.17;100663.56;5053650;28;4148;-60
2022/06/20 00:17:08;;;;;;;;;;;;;;;23.06;52.62;100683.03;5049778;28;4216;-60
2022/06/20 00:19:34;;;;;;;;;;;;;;;22.97;52.76;100723.16;5052033;28;4188;-60
2022/06/20 00:22:00;;;;;;;;;;;;;;;22.99;52.59;100731.94;5050574;28;4173;-60
2022/06/20 00:24:29;;;;;;;;;;;;;;;22.97;52.36;100749.16;5051204;28;5736;-60
2022/06/20 00:26:56;;;;;;;;;;;;;;;22.99;52.46;100755.03;5051546;28;4097;-60
2022/06/20 00:29:22;;;;;;;;;;;;;;;22.97;52.74;100757.81;5049201;28;4018;-60
2022/06/20 00:31:48;;;;;;;;;;;;;;;22.98;52.69;100750.66;5050337;28;4057;-60
2022/06/20 00:34:15;;;;;;;;;;;;;;;22.95;53.07;100762.78;5050306;28;4349;-60
2022/06/20 00:36:41;;;;;;;;;;;;;;;22.94;53.12;100776.50;5047467;28;4241;-59
2022/06/20 00:39:09;;;;;;;;;;;;;;;22.95;53.02;100783.75;5043954;28;4408;-60
2022/06/20 00:41:35;;;;;;;;;;;;;;;22.91;53.14;100783.63;5057074;28;4108;-59
2022/06/20 00:44:01;;;;;;;;;;;;;;;22.88;52.87;100761.84;5046782;28;4256;-60
2022/06/20 00:46:28;;;;;;;;;;;;;;;22.92;53.11;100733.09;5052977;28;4034;-60
2022/06/20 00:49:15;;;;;;;;;;;;;;;22.94;52.97;100698.53;5053850;28;4078;-60
2022/06/20 00:52:02;;;;;;;;;;;;;;;22.93;53.07;100746.16;5050667;28;4331;-60
2022/06/20 00:54:30;;;;;;;;;;;;;;;22.93;53.26;100757.69;5049889;28;4418;-59
2022/06/20 00:57:17;;;;;;;;;;;;;;;22.95;53.42;100725.25;5048891;28;4316;-60
2022/06/20 00:59:46;;;;;;;;;;;;;;;22.91;53.60;100725.88;5046652;28;4223;-60
2022/06/20 01:02:13;;;;;;;;;;;;;;;22.94;53.29;100700.69;5044652;28;5191;-60
2022/06/20 01:04:39;;;;;;;;;;;;;;;22.94;53.35;100695.63;5051833;28;5016;-60
2022/06/20 01:07:07;;;;;;;;;;;;;;;22.93;53.40;100697.06;5048032;28;4372;-60
2022/06/20 01:09:34;;;;;;;;;;;;;;;22.90;53.53;100686.09;5046869;28;4856;-59
2022/06/20 01:12:04;;;;;;;;;;;;;;;22.86;53.27;100662.88;5044788;28;5330;-60
2022/06/20 01:14:34;;;;;;;;;;;;;;;22.87;53.36;100684.56;5049724;28;4103;-60
2022/06/20 01:17:20;;;;;;;;;;;;;;;22.85;53.64;100696.78;5050985;28;4053;-60
2022/06/20 01:19:53;;;;;;;;;;;;;;;22.83;53.62;100707.53;5037048;28;4262;-61
2022/06/20 01:22:26;;;;;;;;;;;;;;;22.80;53.55;100767.34;5057474;28;4326;-60
2022/06/20 01:24:57;;;;;;;;;;;;;;;22.78;53.96;100758.59;5037868;28;4147;-60
2022/06/20 01:27:28;;;;;;;;;;;;;;;22.77;54.03;100728.28;5051544;28;5213;-60
2022/06/20 01:29:55;;;;;;;;;;;;;;;22.77;53.93;100748.47;5047471;28;4272;-60
2022/06/20 01:32:21;;;;;;;;;;;;;;;22.73;54.34;100774.31;5048334;28;5224;-60
2022/06/20 01:34:50;;;;;;;;;;;;;;;22.68;54.05;100784.97;5051737;28;4166;-60
2022/06/20 01:37:29;;;;;;;;;;;;;;;22.67;54.26;100789.25;5039093;28;5553;-60
2022/06/20 01:40:01;;;;;;;;;;;;;;;22.68;54.27;100778.47;5047182;28;4552;-60
2022/06/20 01:42:28;;;;;;;;;;;;;;;22.64;54.58;100766.78;5051685;28;4312;-60
2022/06/20 01:45:02;;;;;;;;;;;;;;;22.65;54.64;100762.47;5051674;28;3978;-60
2022/06/20 01:47:29;;;;;;;;;;;;;;;22.68;54.80;100755.38;5047146;28;4231;-60
2022/06/20 01:49:58;;;;;;;;;;;;;;;22.67;54.67;100751.72;5055235;28;4253;-60
2022/06/20 01:52:24;;;;;;;;;;;;;;;22.67;54.62;100742.34;5048624;28;4364;-60
2022/06/20 01:54:52;;;;;;;;;;;;;;;22.69;54.44;100728.72;5053998;28;4267;-60
2022/06/20 01:57:18;;;;;;;;;;;;;;;22.64;54.65;100680.94;5054560;28;4194;-60
2022/06/20 01:59:59;;;;;;;;;;;;;;;22.69;54.28;100664.47;5046554;28;4258;-60
2022/06/20 02:02:26;;;;;;;;;;;;;;;22.64;54.31;100685.97;5048724;28;4215;-60
2022/06/20 02:04:52;;;;;;;;;;;;;;;22.66;54.41;100717.78;5043721;28;4082;-60
2022/06/20 02:07:19;;;;;;;;;;;;;;;22.61;54.17;100711.13;5053036;28;4180;-61
2022/06/20 02:09:46;;;;;;;;;;;;;;;22.60;54.24;100726.94;5050277;28;4288;-60
2022/06/20 02:12:12;;;;;;;;;;;;;;;22.59;54.34;100711.78;5043178;28;4106;-60
2022/06/20 02:14:41;;;;;;;;;;;;;;;22.63;54.14;100704.66;5050280;28;4165;-60
2022/06/20 02:17:12;;;;;;;;;;;;;;;22.64;54.45;100706.16;5051053;28;4204;-60
2022/06/20 02:19:39;;;;;;;;;;;;;;;22.65;54.21;100739.38;5056830;28;4222;-59
2022/06/20 02:22:06;;;;;;;;;;;;;;;22.65;54.24;100745.16;5053845;28;4440;-60
2022/06/20 02:24:34;;;;;;;;;;;;;;;22.64;54.38;100749.47;5057355;28;4548;-60
2022/06/20 02:27:02;;;;;;;;;;;;;;;22.63;54.37;100771.06;5054147;28;4353;-60
2022/06/20 02:29:28;;;;;;;;;;;;;;;22.61;54.36;100734.22;5056187;28;5193;-60
2022/06/20 02:31:56;;;;;;;;;;;;;;;22.61;54.46;100724.81;5054202;28;4248;-60
2022/06/20 02:34:22;;;;;;;;;;;;;;;22.61;54.39;100716.16;5053335;28;4218;-60
2022/06/20 02:36:49;;;;;;;;;;;;;;;22.61;54.46;100693.81;5049946;28;4264;-60
2022/06/20 02:39:15;;;;;;;;;;;;;;;22.61;54.45;100676.50;5050443;28;4154;-60
2022/06/20 02:41:42;;;;;;;;;;;;;;;22.54;54.47;100666.91;5059964;28;4077;-60
2022/06/20 02:44:10;;;;;;;;;;;;;;;22.51;54.68;100642.25;5049299;28;4512;-60
2022/06/20 02:46:37;;;;;;;;;;;;;;;22.56;54.63;100637.34;5049536;28;4218;-60
2022/06/20 02:49:03;;;;;;;;;;;;;;;22.52;54.74;100643.75;5051964;28;4302;-66
2022/06/20 02:51:32;;;;;;;;;;;;;;;22.49;54.78;100633.53;5053640;28;4278;-59
2022/06/20 02:53:59;;;;;;;;;;;;;;;22.47;54.71;100630.59;5058716;28;4328;-60
2022/06/20 02:56:26;;;;;;;;;;;;;;;22.46;54.54;100626.22;5053787;28;4512;-59
2022/06/20 02:58:57;;;;;;;;;;;;;;;22.43;54.65;100627.56;5054578;28;4195;-60
2022/06/20 03:01:25;;;;;;;;;;;;;;;22.43;54.67;100638.38;5051168;28;4107;-60
2022/06/20 03:03:52;;;;;;;;;;;;;;;22.37;54.87;100642.50;5048015;28;4212;-59
2022/06/20 03:06:32;;;;;;;;;;;;;;;22.37;54.67;100653.31;5052667;28;4457;-60
2022/06/20 03:08:58;;;;;;;;;;;;;;;22.39;54.84;100638.94;5053169;28;4079;-60
2022/06/20 03:11:25;;;;;;;;;;;;;;;22.39;54.75;100610.09;5046929;28;4472;-59
2022/06/20 03:13:51;;;;;;;;;;;;;;;22.41;54.91;100607.28;5054821;28;4443;-60
2022/06/20 03:16:18;;;;;;;;;;;;;;;22.42;55.04;100591.44;5054767;28;4380;-60
2022/06/20 03:18:45;;;;;;;;;;;;;;;22.37;54.96;100561.00;5043823;28;4244;-60
2022/06/20 03:21:11;;;;;;;;;;;;;;;22.37;54.83;100563.88;5051724;28;4629;-60
2022/06/20 03:23:44;;;;;;;;;;;;;;;22.35;55.02;100604.19;5052666;28;4317;-61
2022/06/20 03:26:12;;;;;;;;;;;;;;;22.25;55.49;100619.00;5051803;28;4162;-61
2022/06/20 03:29:07;;;;;;;;;;;;;;;22.13;55.54;100586.84;5044121;28;4198;-61
2022/06/20 03:31:33;;;;;;;;;;;;;;;22.10;55.60;100522.56;5058212;28;4245;-61
2022/06/20 03:33:59;;;;;;;;;;;;;;;22.10;55.55;100542.75;5049901;28;4360;-61
2022/06/20 03:36:26;;;;;;;;;;;;;;;22.10;55.55;100548.53;5051665;28;4210;-60
2022/06/20 03:38:52;;;;;;;;;;;;;;;22.10;55.15;100545.63;5052761;28;4270;-60
2022/06/20 03:41:22;;;;;;;;;;;;;;;22.05;55.45;100544.03;5049201;28;5429;-60
2022/06/20 03:44:05;;;;;;;;;;;;;;;22.07;55.27;100549.88;5057228;28;4263;-60
2022/06/20 03:46:35;;;;;;;;;;;;;;;22.08;55.07;100553.50;5053160;28;4484;-60
2022/06/20 03:49:05;;;;;;;;;;;;;;;22.10;55.09;100554.28;5048210;28;4235;-60
2022/06/20 03:51:34;;;;;;;;;;;;;;;22.12;55.06;100531.28;5055574;28;4342;-60
2022/06/20 03:54:08;;;;;;;;;;;;;;;22.09;55.33;100515.34;5051595;28;5307;-61
2022/06/20 03:56:36;;;;;;;;;;;;;;;22.08;55.11;100542.72;5048107;28;4210;-60
2022/06/20 03:59:08;;;;;;;;;;;;;;;22.07;54.93;100558.53;5050164;28;4096;-60
2022/06/20 04:01:36;;;;;;;;;;;;;;;22.07;55.12;100547.00;5039707;28;5430;-60
2022/06/20 04:04:06;;;;;;;;;;;;;;;22.09;55.02;100544.19;5049876;28;4563;-61
2022/06/20 04:06:35;;;;;;;;;;;;;;;22.05;55.59;100552.69;5047816;28;4854;-61
2022/06/20 04:12:09;;;;;;;;;;;;;;;21.96;55.46;100542.28;5048581;28;5337;-61
2022/06/20 04:14:39;;;;;;;;;;;;;;;21.99;55.17;100545.97;5060310;28;5152;-60
2022/06/20 04:18:27;;;;;;;;;;;;;;;21.98;55.43;100556.75;5053106;28;4179;-60
2022/06/20 04:19:53;;;;;;;;;;;;;;;22.02;55.53;100536.72;5052404;28;4337;-60
2022/06/20 04:22:19;;;;;;;;;;;;;;;21.95;55.83;100526.41;5046157;28;4710;-60
2022/06/20 04:25:05;;;;;;;;;;;;;;;21.93;56.05;100521.28;5047329;28;5348;-60
2022/06/20 04:27:37;;;;;;;;;;;;;;;21.95;55.98;100523.50;5049013;28;4242;-60
2022/06/20 04:30:17;;;;;;;;;;;;;;;21.91;56.11;100552.19;5052982;28;4461;-60
2022/06/20 04:32:51;;;;;;;;;;;;;;;21.96;55.91;100571.09;5043882;28;4089;-60
2022/06/20 04:35:22;;;;;;;;;;;;;;;22.01;56.02;100572.72;5044347;28;4055;-59
2022/06/20 04:37:50;;;;;;;;;;;;;;;22.06;56.09;100564.94;5045479;28;4075;-60
2022/06/20 04:40:17;;;;;;;;;;;;;;;22.04;56.02;100551.22;5040499;28;4227;-60
2022/06/20 04:42:47;;;;;;;;;;;;;;;22.07;55.58;100547.00;5048373;28;4675;-60
2022/06/20 04:45:32;;;;;;;;;;;;;;;21.37;57.59;100535.09;5046152;28;4270;-66
2022/06/20 04:48:06;;;;;;;;;;;;;;;21.03;58.52;100526.66;5041939;28;4243;-63
2022/06/20 04:50:33;;;;;;;;;;;;;;;20.86;59.46;100548.31;5051571;28;4104;-62
2022/06/20 04:53:00;;;;;;;;;;;;;;;21.09;58.92;100580.84;5045070;28;3986;-62
2022/06/20 04:55:27;;;;;;;;;;;;;;;21.05;60.43;100612.34;5042690;28;4090;-61
2022/06/20 04:57:54;;;;;;;;;;;;;;;20.93;60.58;100619.09;5044236;28;4329;-62
2022/06/20 05:00:22;;;;;;;;;;;;;;;20.67;61.12;100620.91;5043872;28;4153;-62
2022/06/20 05:02:48;;;;;;;;;;;;;;;20.64;61.28;100616.47;5049528;28;5499;-62
2022/06/20 05:05:18;;;;;;;;;;;;;;;20.48;62.22;100617.25;5052290;28;4217;-63
2022/06/20 05:07:45;;;;;;;;;;;;;;;20.48;62.20;100643.13;5056056;28;4221;-63
2022/06/20 05:10:16;;;;;;;;;;;;;;;20.85;61.49;100672.72;5043637;28;4330;-68
2022/06/20 05:12:44;;;;;;;;;;;;;;;21.20;60.22;100697.91;5048902;28;4248;-69
2022/06/20 05:15:13;;;;;;;;;;;;;;;21.39;60.71;100676.31;5041063;28;4841;-71
2022/06/20 05:17:40;;;;;;;;;;;;;;;21.63;60.85;100662.16;5052320;28;4149;-69
2022/06/20 05:20:07;;;;;;;;;;;;;;;21.81;60.13;100690.19;5059435;28;4669;-71
2022/06/20 05:22:35;;;;;;;;;;;;;;;21.90;59.33;100735.22;5069210;28;5371;-67
2022/06/20 05:25:03;;;;;;;;;;;;;;;21.95;59.04;100748.38;5069002;28;4204;-70
2022/06/20 05:27:31;;;;;;;;;;;;;;;21.99;58.99;100760.06;5057231;28;4185;-69
2022/06/20 05:30:00;;;;;;;;;;;;;;;22.05;58.45;100786.25;5052408;28;5694;-65
2022/06/20 05:32:33;;;;;;;;;;;;;;;22.09;58.39;100783.50;5052359;28;4228;-63
2022/06/20 05:35:06;;;;;;;;;;;;;;;22.23;58.40;100779.72;5047859;28;4261;-62
2022/06/20 05:37:35;;;;;;;;;;;;;;;22.29;57.59;100792.22;5050676;28;5338;-64
2022/06/20 05:40:04;;;;;;;;;;;;;;;22.34;57.75;100767.16;5054847;28;4221;-63
2022/06/20 05:42:30;;;;;;;;;;;;;;;22.38;57.39;100773.81;5046678;28;5185;-65
2022/06/20 05:44:56;;;;;;;;;;;;;;;22.31;57.27;100780.00;5053971;28;4290;-65
2022/06/20 05:47:24;;;;;;;;;;;;;;;22.26;57.24;100792.81;5060746;28;5524;-70
2022/06/20 05:49:52;;;;;;;;;;;;;;;22.24;57.21;100789.84;5056574;28;4165;-69
2022/06/20 05:52:19;;;;;;;;;;;;;;;22.23;57.53;100788.38;5060305;28;5549;-69
2022/06/20 05:55:05;;;;;;;;;;;;;;;22.23;57.15;100788.38;5057326;28;5287;-69
2022/06/20 05:57:32;;;;;;;;;;;;;;;22.22;57.17;100793.41;5053351;28;5383;-68
2022/06/20 06:00:05;;;;;;;;;;;;;;;22.22;57.12;100712.66;5050858;28;4080;-69
2022/06/20 06:02:47;;;;;;;;;;;;;;;22.24;57.00;100611.00;5051353;28;6510;-64
2022/06/20 06:05:16;;;;;;;;;;;;;;;22.25;56.86;100514.44;5051514;28;4199;-65
2022/06/20 06:07:46;;;;;;;;;;;;;;;22.26;56.92;100409.19;5054222;28;5281;-65
2022/06/20 06:10:31;;;;;;;;;;;;;;;22.27;56.96;100402.03;5054178;28;4607;-65
2022/06/20 06:13:03;;;;;;;;;;;;;;;22.30;56.77;100472.78;5054764;28;5529;-64
2022/06/20 06:15:30;;;;;;;;;;;;;;;22.30;56.75;100490.81;5055160;28;5611;-64
2022/06/20 06:17:57;;;;;;;;;;;;;;;22.32;56.64;100499.53;5055979;28;4233;-64
2022/06/20 06:20:24;;;;;;;;;;;;;;;22.34;56.67;100527.72;5054266;28;4677;-64
2022/06/20 06:22:51;;;;;;;;;;;;;;;22.36;56.72;100562.41;5049384;28;4182;-64
2022/06/20 06:25:25;;;;;;;;;;;;;;;22.37;56.72;100599.22;5053179;28;5509;-64
2022/06/20 06:27:53;;;;;;;;;;;;;;;22.38;56.35;100628.84;5038466;28;5473;-64
2022/06/20 06:30:21;;;;;;;;;;;;;;;22.38;56.77;100635.34;5053207;28;5661;-64
2022/06/20 06:32:47;;;;;;;;;;;;;;;22.39;56.65;100641.84;5052624;28;4170;-63
2022/06/20 06:35:34;;;;;;;;;;;;;;;22.36;56.60;100625.88;5050638;28;5368;-63
2022/06/20 06:38:11;;;;;;;;;;;;;;;22.20;56.99;100631.06;5046471;28;5742;-70
2022/06/20 06:40:38;;;;;;;;;;;;;;;22.21;57.65;100626.75;5052874;28;5902;-69
2022/06/20 06:43:11;;;;;;;;;;;;;;;22.26;57.53;100602.44;5053836;28;4255;-71
2022/06/20 06:45:39;;;;;;;;;;;;;;;22.25;56.88;100589.44;5058375;28;4025;-69
2022/06/20 06:48:08;;;;;;;;;;;;;;;22.22;56.89;100571.31;5048220;28;5620;-69
2022/06/20 06:50:38;;;;;;;;;;;;;;;22.25;56.98;100563.47;5052782;28;4234;-69
2022/06/20 06:53:20;;;;;;;;;;;;;;;22.26;56.94;100562.06;5042868;28;4374;-71
2022/06/20 06:55:48;;;;;;;;;;;;;;;22.25;57.08;100543.28;5048819;28;4679;-63
2022/06/20 06:58:18;;;;;;;;;;;;;;;22.32;56.95;100513.97;5045789;28;4657;-63
2022/06/20 07:01:04;;;;;;;;;;;;;;;22.30;56.84;100518.94;5048796;28;4176;-63
2022/06/20 07:03:32;;;;;;;;;;;;;;;22.26;56.89;100498.59;5052696;28;5639;-67
2022/06/20 07:06:00;;;;;;;;;;;;;;;22.22;56.76;100504.22;5056573;28;4237;-67
2022/06/20 07:08:48;;;;;;;;;;;;;;;22.24;56.67;100502.19;5062699;28;4115;-76
2022/06/20 07:11:18;;;;;;;;;;;;;;;22.14;56.82;100493.88;5055439;28;5226;-72
2022/06/20 07:14:00;;;;;;;;;;;;;;;22.15;56.71;100514.78;5052748;28;4199;-71
2022/06/20 07:16:36;;;;;;;;;;;;;;;22.14;56.69;100513.34;5055549;28;5311;-69
2022/06/20 07:19:03;;;;;;;;;;;;;;;22.10;56.85;100516.06;5058312;28;4896;-71
2022/06/20 07:21:30;;;;;;;;;;;;;;;22.09;56.77;100515.34;5052871;28;6374;-79
2022/06/20 07:24:00;;;;;;;;;;;;;;;22.06;57.11;100534.00;5057308;28;4318;-71
2022/06/20 07:26:28;;;;;;;;;;;;;;;22.07;57.18;100532.56;5051177;28;4068;-70
2022/06/20 07:28:59;;;;;;;;;;;;;;;22.00;57.35;100553.94;5056003;28;5207;-74
2022/06/20 07:31:28;;;;;;;;;;;;;;;22.05;56.65;100575.00;5053058;28;5069;-71
2022/06/20 07:33:55;;;;;;;;;;;;;;;22.05;56.65;100590.16;5056295;28;5510;-72
2022/06/20 07:36:24;;;;;;;;;;;;;;;22.04;56.61;100616.81;5047763;28;5656;-70
2022/06/20 07:38:52;;;;;;;;;;;;;;;21.91;57.04;100627.16;5053254;28;4150;-71
2022/06/20 07:41:23;;;;;;;;;;;;;;;22.14;57.55;100637.34;5049088;28;5671;-68
2022/06/20 07:43:52;;;;;;;;;;;;;;;22.31;56.66;100641.53;5050438;28;5579;-64
2022/06/20 07:46:21;;;;;;;;;;;;;;;22.44;56.20;100652.09;5052980;28;5041;-68
2022/06/20 07:48:47;;;;;;;;;;;;;;;22.51;55.78;100676.88;5054015;28;5612;-67
2022/06/20 07:51:15;;;;;;;;;;;;;;;22.57;55.68;100694.41;5052533;28;4168;-66
2022/06/20 07:53:43;;;;;;;;;;;;;;;22.63;55.36;100701.78;5051286;28;4316;-64
2022/06/20 07:56:10;;;;;;;;;;;;;;;22.67;55.37;100694.00;5051976;28;4275;-66
2022/06/20 07:58:37;;;;;;;;;;;;;;;22.70;54.74;100689.03;5048458;28;4586;-66
2022/06/20 08:01:05;;;;;;;;;;;;;;;22.73;54.76;100696.38;5049866;28;5861;-65
2022/06/20 08:03:34;;;;;;;;;;;;;;;22.72;54.80;100697.78;5050988;28;4671;-62
2022/06/20 08:06:02;;;;;;;;;;;;;;;22.72;54.90;100677.56;5051696;28;4358;-64
2022/06/20 08:08:42;;;;;;;;;;;;;;;22.70;54.94;100681.13;5049733;28;5581;-63
2022/06/20 08:11:39;;;;;;;;;;;;;;;22.69;54.71;100676.75;5051979;28;4207;-66
2022/06/20 08:13:58;;;;;;;;;;;;;;;22.72;54.41;100663.91;5053753;28;5504;-62
2022/06/20 08:16:29;;;;;;;;;;;;;;;22.79;54.62;100661.94;5053503;28;4722;-65
2022/06/20 08:18:55;;;;;;;;;;;;;;;22.83;54.58;100638.25;5073074;28;5405;-63
2022/06/20 08:21:25;;;;;;;;;;;;;;;22.82;54.44;100555.94;5056403;28;5228;-63
2022/06/20 08:23:53;;;;;;;;;;;;;;;22.80;54.23;100560.22;5061186;28;4012;-65
2022/06/20 08:26:23;;;;;;;;;;;;;;;22.81;54.54;100526.31;5055251;28;5296;-61
2022/06/20 08:28:53;;;;;;;;;;;;;;;22.84;54.85;100535.78;5055894;28;5521;-63
2022/06/20 08:31:21;;;;;;;;;;;;;;;22.85;54.76;100569.03;5059859;28;5352;-71
2022/06/20 08:33:57;;;;;;;;;;;;;;;22.85;54.59;100618.09;5057502;28;4114;-70
2022/06/20 08:36:26;;;;;;;;;;;;;;;22.87;54.53;100656.44;5060172;28;4506;-69
2022/06/20 08:39:01;;;;;;;;;;;;;;;22.90;54.28;100657.22;5058410;28;4198;-67
2022/06/20 08:41:39;;;;;;;;;;;;;;;22.89;54.25;100653.59;5032716;28;4106;-65
2022/06/20 08:44:24;;;;;;;;;;;;;;;22.91;54.28;100656.56;5018192;28;5702;-72
2022/06/20 08:46:56;;;;;;;;;;;;;;;22.93;54.22;100664.53;5018568;28;5693;-71
2022/06/20 08:49:41;;;;;;;;;;;;;;;22.94;54.21;100666.75;5026529;28;4207;-74
2022/06/20 08:52:14;;;;;;;;;;;;;;;22.97;54.49;100661.78;5039608;28;4400;-69
2022/06/20 08:54:53;;;;;;;;;;;;;;;22.89;53.71;100665.16;5029890;28;4553;-60
2022/06/20 08:57:26;;;;;;;;;;;;;;;22.95;54.48;100674.03;5053452;28;5681;-64
2022/06/20 09:00:14;;;;;;;;;;;;;;;23.04;54.17;100651.19;5052984;28;4556;-62
2022/06/20 09:03:01;;;;;;;;;;;;;;;23.06;53.95;100645.50;5056978;28;4210;-65
2022/06/20 09:05:40;;;;;;;;;;;;;;;23.08;53.98;100657.13;5054127;28;5618;-60
2022/06/20 09:08:24;;;;;;;;;;;;;;;23.06;53.56;100648.38;5053551;28;4222;-65
2022/06/20 09:11:10;;;;;;;;;;;;;;;23.05;54.09;100644.03;5053817;28;4574;-62
2022/06/20 09:13:46;;;;;;;;;;;;;;;23.07;53.83;100618.09;5053581;28;4132;-63
2022/06/20 09:16:33;;;;;;;;;;;;;;;23.07;53.42;100638.31;5052813;28;5426;-68
2022/06/20 09:19:05;;;;;;;;;;;;;;;23.05;53.66;100641.16;5056281;28;4148;-69
2022/06/20 09:21:37;;;;;;;;;;;;;;;23.05;53.85;100632.47;5051915;28;4169;-68
2022/06/20 09:24:36;;;;;;;;;;;;;;;23.09;53.62;100629.69;5050341;28;4816;-71
2022/06/20 09:27:06;;;;;;;;;;;;;;;23.06;53.63;100631.06;5021419;28;4418;-65
2022/06/20 09:29:51;;;;;;;;;;;;;;;23.07;53.31;100639.06;5054186;28;4145;-64
2022/06/20 09:32:36;;;;;;;;;;;;;;;23.11;53.37;100649.97;5052755;28;4290;-71
2022/06/20 09:35:05;;;;;;;;;;;;;;;23.10;53.44;100655.03;5054896;28;5686;-65
2022/06/20 09:37:34;;;;;;;;;;;;;;;23.17;53.32;100664.63;5053856;28;4735;-67
2022/06/20 09:40:19;;;;;;;;;;;;;;;23.19;53.21;100656.03;5052962;28;4173;-67
2022/06/20 09:42:52;;;;;;;;;;;;;;;23.17;53.19;100647.28;5052310;28;4547;-63
2022/06/20 09:45:18;;;;;;;;;;;;;;;23.23;52.87;100664.84;5050975;28;5698;-60
2022/06/20 09:48:05;;;;;;;;;;;;;;;23.25;53.40;100659.13;5051352;28;4205;-61
2022/06/20 09:50:36;;;;;;;;;;;;;;;23.25;52.90;100646.81;5047935;28;4338;-64
2022/06/20 09:53:03;;;;;;;;;;;;;;;23.26;53.01;100660.59;5051333;28;4007;-62
2022/06/20 09:55:49;;;;;;;;;;;;;;;23.28;53.20;100675.09;5051516;28;5643;-62
2022/06/20 09:58:24;;;;;;;;;;;;;;;23.28;52.88;100674.34;5050676;28;4555;-62
2022/06/20 10:00:51;;;;;;;;;;;;;;;23.26;52.71;100660.59;5052808;28;4147;-63
2022/06/20 10:03:29;;;;;;;;;;;;;;;23.28;52.85;100649.09;5054423;28;4492;-62
2022/06/20 10:05:59;;;;;;;;;;;;;;;23.28;53.17;100657.75;5052983;28;4429;-60
2022/06/20 10:08:32;;;;;;;;;;;;;;;23.31;53.37;100656.41;5055944;28;4008;-60
2022/06/20 10:10:58;;;;;;;;;;;;;;;23.31;52.81;100659.28;5057359;28;4728;-61
2022/06/20 10:13:43;;;;;;;;;;;;;;;23.33;52.76;100664.41;5054477;28;4449;-62
2022/06/20 10:16:11;;;;;;;;;;;;;;;23.33;52.93;100687.50;5053969;28;4525;-62
2022/06/20 10:18:40;;;;;;;;;;;;;;;23.34;52.84;100695.53;5056898;28;4719;-61
2022/06/20 10:21:15;;;;;;;;;;;;;;;23.37;52.98;100694.16;5058703;28;4626;-64
2022/06/20 10:23:47;;;;;;;;;;;;;;;23.37;52.71;100688.38;5056687;28;4008;-62
2022/06/20 10:26:30;;;;;;;;;;;;;;;23.40;52.71;100694.97;5056174;28;4563;-65
2022/06/20 10:29:12;;;;;;;;;;;;;;;23.39;52.62;100696.38;5057369;28;5326;-65
2022/06/20 10:31:38;;;;;;;;;;;;;;;23.38;52.51;100701.41;5053546;28;3982;-64
2022/06/20 10:34:10;;;;;;;;;;;;;;;23.40;52.49;100710.13;5057205;28;4519;-62
2022/06/20 10:36:49;;;;;;;;;;;;;;;23.37;52.73;100723.06;5056799;28;4059;-62
2022/06/20 10:39:20;;;;;;;;;;;;;;;23.24;52.77;100732.72;5053782;28;4226;-62
2022/06/20 10:41:53;;;;;;;;;;;;;;;23.10;53.33;100729.38;5051045;28;4147;-62
2022/06/20 10:44:21;;;;;;;;;;;;;;;23.07;53.37;100719.19;5051904;28;4570;-62
2022/06/20 10:46:52;;;;;;;;;;;;;;;23.07;53.51;100707.63;5052478;28;4724;-63
2022/06/20 10:49:30;;;;;;;;;;;;;;;23.06;53.86;100700.38;5052463;28;4188;-64
2022/06/20 10:52:03;;;;;;;;;;;;;;;23.05;53.72;100710.44;5053028;28;4550;-62
2022/06/20 10:54:40;;;;;;;;;;;;;;;23.03;53.75;100714.00;5053728;28;4707;-64
2022/06/20 10:57:19;;;;;;;;;;;;;;;22.99;54.40;100717.47;5054457;28;4135;-64
2022/06/20 11:00:12;;;;;;;;;;;;;;;22.97;54.39;100702.94;5053572;28;4208;-63
2022/06/20 11:02:51;;;;;;;;;;;;;;;22.95;54.42;100702.91;5048835;28;4173;-67
2022/06/20 11:05:18;;;;;;;;;;;;;;;22.94;54.61;100707.19;5059314;28;4590;-67
2022/06/20 11:07:49;;;;;;;;;;;;;;;22.94;54.85;100701.41;5055268;28;4742;-66
2022/06/20 11:10:15;;;;;;;;;;;;;;;22.97;55.05;100691.41;5054840;28;5737;-71
2022/06/20 11:12:51;;;;;;;;;;;;;;;23.04;55.30;100703.19;5054560;28;4155;-64
2022/06/20 11:15:17;;;;;;;;;;;;;;;23.16;55.08;100704.34;5054215;28;5575;-66
2022/06/20 11:17:45;;;;;;;;;;;;;;;23.26;54.92;100712.59;5059225;28;4231;-65
2022/06/20 11:20:22;;;;;;;;;;;;;;;23.15;55.03;100711.50;5062130;28;4157;-63
2022/06/20 11:23:11;;;;;;;;;;;;;;;23.21;54.70;100699.44;5055673;28;4242;-61
2022/06/20 11:25:44;;;;;;;;;;;;;;;23.42;54.82;100707.31;5055861;28;4109;-63
2022/06/20 11:28:14;;;;;;;;;;;;;;;23.50;54.92;100717.66;5055720;28;5319;-62
2022/06/20 11:30:45;;;;;;;;;;;;;;;23.54;55.07;100717.78;5055474;28;5325;-61
2022/06/20 11:33:16;;;;;;;;;;;;;;;23.59;54.62;100716.47;5056039;28;4074;-63
2022/06/20 11:35:49;;;;;;;;;;;;;;;23.58;54.35;100715.75;5057765;28;3960;-63
2022/06/20 11:38:27;;;;;;;;;;;;;;;23.63;54.64;100719.50;5052509;28;4182;-62
2022/06/20 11:41:05;;;;;;;;;;;;;;;23.40;54.15;100732.53;5050804;28;5479;-63
2022/06/20 11:43:49;;;;;;;;;;;;;;;23.38;55.12;100727.41;5053703;28;5205;-60
2022/06/20 11:46:27;;;;;;;;;;;;;;;23.48;54.40;100703.13;5045941;28;4142;-59
2022/06/20 11:49:02;;;;;;;;;;;;;;;23.56;54.43;100726.50;5056451;28;4107;-60
2022/06/20 11:51:47;;;;;;;;;;;;;;;23.57;53.48;100722.19;5054399;28;4718;-60
2022/06/20 11:54:27;;;;;;;;;;;;;;;23.57;53.29;100716.41;5056945;28;4502;-61
2022/06/20 11:56:55;;;;;;;;;;;;;;;23.61;53.61;100716.56;5057780;28;4400;-61
2022/06/20 11:59:22;;;;;;;;;;;;;;;23.63;53.37;100733.97;5056376;28;4235;-60
2022/06/20 12:02:04;;;;;;;;;;;;;;;23.62;53.18;100750.56;5057107;28;3984;-63
2022/06/20 12:04:45;;;;;;;;;;;;;;;23.65;53.52;100742.69;5054014;28;4589;-61
2022/06/20 12:07:33;;;;;;;;;;;;;;;23.64;52.85;100749.91;5054115;28;5473;-62
2022/06/20 12:10:26;;;;;;;;;;;;;;;23.66;53.36;100769.44;5053506;28;4495;-63
2022/06/20 12:13:07;;;;;;;;;;;;;;;23.65;53.15;100771.59;5023619;28;5438;-62
2022/06/20 12:15:49;;;;;;;;;;;;;;;23.64;53.10;100773.03;5053114;28;4155;-62
2022/06/20 12:18:21;;;;;;;;;;;;;;;23.66;52.83;100769.44;5052291;28;4550;-63
2022/06/20 12:23:49;;;;;;;;;;;;;;;23.66;52.82;100763.66;5056405;28;4160;-61
2022/06/20 12:26:15;;;;;;;;;;;;;;;23.65;53.11;100774.50;5051597;28;5524;-61
2022/06/20 12:28:42;;;;;;;;;;;;;;;23.72;52.97;100761.69;5053436;28;5638;-68
2022/06/20 12:31:13;;;;;;;;;;;;;;;23.92;53.12;100755.09;5051123;28;4651;-66
2022/06/20 12:33:47;;;;;;;;;;;;;;;23.90;52.87;100746.38;5055949;28;4788;-65
2022/06/20 12:36:24;;;;;;;;;;;;;;;23.91;52.60;100750.72;5056145;28;4092;-65
2022/06/20 12:38:53;;;;;;;;;;;;;;;23.93;52.66;100753.69;5055871;28;4151;-64
2022/06/20 12:41:20;;;;;;;;;;;;;;;23.87;52.25;100753.47;5060859;28;4648;-67
2022/06/20 12:44:05;;;;;;;;;;;;;;;23.80;51.35;100764.88;5054573;28;5660;-62
2022/06/20 12:46:37;;;;;;;;;;;;;;;23.74;52.09;100763.94;5051991;28;4860;-64
2022/06/20 12:49:12;;;;;;;;;;;;;;;23.74;51.63;100753.13;5053761;28;4628;-67
2022/06/20 12:51:47;;;;;;;;;;;;;;;23.74;51.68;100761.03;5056174;28;4627;-63
2022/06/20 12:54:13;;;;;;;;;;;;;;;23.76;51.60;100766.91;5055377;28;4051;-63
2022/06/20 12:56:58;;;;;;;;;;;;;;;23.77;51.49;100769.09;5054848;28;4304;-63
2022/06/20 12:59:25;;;;;;;;;;;;;;;23.79;51.46;100766.28;5053690;28;4167;-63
2022/06/20 13:01:51;;;;;;;;;;;;;;;23.77;51.34;100743.09;5056693;28;3996;-64
2022/06/20 13:04:33;;;;;;;;;;;;;;;23.74;51.16;100753.13;5055389;28;4072;-62
2022/06/20 13:07:15;;;;;;;;;;;;;;;23.76;51.31;100732.94;5054005;28;4043;-66
2022/06/20 13:10:00;;;;;;;;;;;;;;;23.74;51.38;100717.66;5057883;28;4142;-66
2022/06/20 13:12:37;;;;;;;;;;;;;;;23.76;51.39;100750.28;5051301;28;4155;-65
2022/06/20 13:15:21;;;;;;;;;;;;;;;23.63;51.49;100742.63;5054015;28;5344;-69
2022/06/20 13:18:04;;;;;;;;;;;;;;;23.69;51.90;100730.53;5053287;28;4175;-67
2022/06/20 13:20:45;;;;;;;;;;;;;;;23.76;51.49;100732.94;5051992;28;4244;-66